createdAt,value
2018-09-14T00:01:58.045Z,21.9
2018-09-14T00:07:29.177Z,21.9
2018-09-14T00:13:04.355Z,21.9
2018-09-14T00:18:35.831Z,21.9
2018-09-14T00:24:00.688Z,21.9
2018-09-14T00:29:31.831Z,21.9
2018-09-14T00:35:07.412Z,21.8
2018-09-14T00:40:37.223Z,21.8
2018-09-14T00:46:02.294Z,21.8
2018-09-14T00:51:33.504Z,21.8
2018-09-14T00:57:04.586Z,21.8
2018-09-14T01:02:35.785Z,21.8
2018-09-14T01:08:05.929Z,21.8
2018-09-14T01:13:36.499Z,21.9
2018-09-14T01:19:08.040Z,21.9
2018-09-14T01:24:38.449Z,21.9
2018-09-14T01:30:09.687Z,21.9
2018-09-14T01:35:40.834Z,21.9
2018-09-14T01:41:11.091Z,21.9
2018-09-14T01:46:46.092Z,21.9
2018-09-14T01:52:17.242Z,21.8
2018-09-14T01:57:43.379Z,21.8
2018-09-14T02:03:13.520Z,21.8
2018-09-14T02:08:43.915Z,21.8
2018-09-14T02:14:19.022Z,21.8
2018-09-14T02:19:43.975Z,21.8
2018-09-14T02:25:14.090Z,21.8
2018-09-14T02:30:49.330Z,21.8
2018-09-14T02:36:14.578Z,21.7
2018-09-14T02:41:44.525Z,21.7
2018-09-14T02:47:15.739Z,21.7
2018-09-14T02:52:45.824Z,21.7
2018-09-14T02:58:21.950Z,21.9
2018-09-14T03:03:48.146Z,22.1
2018-09-14T03:09:18.383Z,22.3
2018-09-14T03:14:49.641Z,22.5
2018-09-14T03:20:21.161Z,22.7
2018-09-14T03:25:57.796Z,22.9
2018-09-14T03:31:22.520Z,23
2018-09-14T03:36:57.838Z,23.1
2018-09-14T03:42:24.189Z,23.2
2018-09-14T03:47:55.538Z,23.2
2018-09-14T03:53:26.863Z,23.4
2018-09-14T03:59:02.560Z,23.3
2018-09-14T04:04:28.581Z,23.1
2018-09-14T04:10:03.898Z,22.9
2018-09-14T04:15:30.141Z,22.7
2018-09-14T04:21:00.372Z,22.6
2018-09-14T04:26:30.666Z,22.6
2018-09-14T04:32:01.847Z,22.5
2018-09-14T04:43:03.562Z,22.3
2018-09-14T04:48:33.863Z,22.1
2018-09-14T04:54:03.690Z,22.1
2018-09-14T04:59:35.451Z,22.1
2018-09-14T05:05:10.622Z,22.2
2018-09-14T05:10:35.281Z,22.3
2018-09-14T05:16:11.627Z,22.4
2018-09-14T05:21:37.747Z,22.6
2018-09-14T05:27:09.096Z,22.8
2018-09-14T05:32:40.395Z,23.1
2018-09-14T05:38:11.073Z,23.3
2018-09-14T05:43:42.091Z,23.4
2018-09-14T05:49:12.491Z,23.5
2018-09-14T05:54:48.855Z,23.5
2018-09-14T06:00:20.280Z,23.5
2018-09-14T06:05:45.639Z,23.6
2018-09-14T06:11:16.006Z,23.6
2018-09-14T06:16:51.463Z,23.6
2018-09-14T06:22:16.817Z,23.4
2018-09-14T06:27:47.370Z,23.3
2018-09-14T06:33:17.427Z,23.3
2018-09-14T06:38:53.145Z,23.3
2018-09-14T06:44:19.165Z,23.1
2018-09-14T06:49:50.679Z,23
2018-09-14T06:55:25.693Z,22.9
2018-09-14T07:00:51.259Z,22.8
2018-09-14T07:06:22.302Z,22.8
2018-09-14T07:11:52.647Z,22.8
2018-09-14T07:17:22.784Z,22.8
2018-09-14T07:22:53.118Z,22.9
2018-09-14T07:34:00.692Z,23
2018-09-14T07:39:27.029Z,22.9
2018-09-14T07:44:57.227Z,22.7
2018-09-14T07:50:28.728Z,22.6
2018-09-14T07:55:58.711Z,22.4
2018-09-14T08:01:34.150Z,22.3
2018-09-14T08:07:04.081Z,22.3
2018-09-14T08:12:34.257Z,22.2
2018-09-14T08:18:05.450Z,22.1
2018-09-14T08:23:30.916Z,22.1
2018-09-14T08:29:00.815Z,22.2
2018-09-14T08:34:31.133Z,22.4
2018-09-14T08:40:01.567Z,22.5
2018-09-14T08:45:32.522Z,22.5
2018-09-14T08:51:02.759Z,22.6
2018-09-14T08:56:34.303Z,22.6
2018-09-14T09:02:05.291Z,22.6
2018-09-14T09:07:42.127Z,22.6
2018-09-14T09:13:06.802Z,22.6
2018-09-14T09:18:42.147Z,22.6
2018-09-14T09:24:07.524Z,22.6
2018-09-14T09:29:37.833Z,22.6
2018-09-14T09:35:08.295Z,22.6
2018-09-14T09:40:38.129Z,22.7
2018-09-14T09:46:09.618Z,22.6
2018-09-14T09:51:44.866Z,22.6
2018-09-14T09:57:09.832Z,22.6
2018-09-14T10:02:40.583Z,22.6
2018-09-14T10:08:11.287Z,22.5
2018-09-14T10:13:41.524Z,22.4
2018-09-14T10:19:12.069Z,22.3
2018-09-14T10:24:41.897Z,22.3
2018-09-14T10:30:12.425Z,22.3
2018-09-14T10:35:42.675Z,22.4
2018-09-14T10:41:12.537Z,22.4
2018-09-14T10:46:43.752Z,22.4
2018-09-14T10:52:19.048Z,22.5
2018-09-14T10:57:45.212Z,22.5
2018-09-14T11:03:15.430Z,22.5
2018-09-14T11:08:45.665Z,22.5
2018-09-14T11:14:15.985Z,22.5
2018-09-14T11:19:47.124Z,22.5
2018-09-14T11:25:17.551Z,22.5
2018-09-14T11:30:47.575Z,22.5
2018-09-14T11:36:19.057Z,22.5
2018-09-14T11:41:50.089Z,22.4
2018-09-14T11:47:21.253Z,22.3
2018-09-14T11:52:57.947Z,22.1
2018-09-14T11:58:23.845Z,22.1
2018-09-14T12:03:55.053Z,22
2018-09-14T12:09:24.904Z,21.9
2018-09-14T12:14:55.256Z,21.9
2018-09-14T12:20:26.117Z,21.9
2018-09-14T12:25:57.263Z,21.9
2018-09-14T12:31:28.420Z,21.9
2018-09-14T12:36:59.583Z,22
2018-09-14T12:42:31.067Z,22
2018-09-14T12:48:02.086Z,22.1
2018-09-14T12:53:32.054Z,22.1
2018-09-14T12:59:03.243Z,22.2
2018-09-14T13:04:39.436Z,22.2
2018-09-14T13:10:05.783Z,22.2
2018-09-14T13:15:40.843Z,22.2
2018-09-14T13:21:07.327Z,22.3
2018-09-14T13:26:37.254Z,22.3
2018-09-14T13:32:08.391Z,22.3
2018-09-14T13:37:43.572Z,22.2
2018-09-14T13:43:08.775Z,22.2
2018-09-14T13:48:43.944Z,22.2
2018-09-14T13:54:14.141Z,22.2
2018-09-14T13:59:40.318Z,22.2
2018-09-14T14:05:11.510Z,22.2
2018-09-14T14:10:41.979Z,22.2
2018-09-14T14:16:11.903Z,22.2
2018-09-14T14:21:43.087Z,22.2
2018-09-14T14:27:14.615Z,22.3
2018-09-14T14:32:44.474Z,22.3
2018-09-14T14:38:15.672Z,22.3
2018-09-14T14:43:46.546Z,22.3
2018-09-14T14:49:16.064Z,22.4
2018-09-14T14:54:47.305Z,22.3
2018-09-14T15:00:17.446Z,22.1
2018-09-14T15:11:18.885Z,21.8
2018-09-14T15:16:48.863Z,21.7
2018-09-14T15:22:20.110Z,21.7
2018-09-14T15:27:50.102Z,21.7
2018-09-14T15:33:25.169Z,21.6
2018-09-14T15:38:50.305Z,21.7
2018-09-14T15:44:20.741Z,21.8
2018-09-14T15:49:50.603Z,22
2018-09-14T15:55:20.766Z,22.1
2018-09-14T16:00:56.497Z,22.1
2018-09-14T16:06:21.493Z,22.1
2018-09-14T16:11:52.465Z,22.1
2018-09-14T16:17:22.791Z,22.1
2018-09-14T16:22:53.659Z,22.1
2018-09-14T16:28:23.866Z,22.1
2018-09-14T16:33:54.351Z,22.2
2018-09-14T16:39:30.502Z,22.2
2018-09-14T16:44:56.444Z,22.2
2018-09-14T16:50:26.614Z,22.2
2018-09-14T16:56:01.752Z,22.2
2018-09-14T17:01:28.206Z,22.2
2018-09-14T17:06:58.215Z,22.2
2018-09-14T17:12:34.325Z,22.2
2018-09-14T17:18:04.569Z,22.2
2018-09-14T17:23:30.692Z,22.2
2018-09-14T17:29:01.598Z,22.2
2018-09-14T17:34:37.349Z,22.2
2018-09-14T17:40:08.231Z,22.1
2018-09-14T17:45:33.436Z,22.1
2018-09-14T17:51:09.339Z,22.1
2018-09-14T17:56:33.764Z,22.1
2018-09-14T18:02:04.946Z,22.1
2018-09-14T18:07:35.136Z,22.1
2018-09-14T18:13:05.324Z,22.1
2018-09-14T18:18:36.473Z,22.1
2018-09-14T18:24:06.940Z,22.1
2018-09-14T18:29:42.868Z,22.1
2018-09-14T18:35:13.152Z,22.1
2018-09-14T18:40:38.447Z,22.1
2018-09-14T18:46:08.428Z,22.1
2018-09-14T18:51:44.593Z,22.2
2018-09-14T18:57:09.937Z,22.1
2018-09-14T19:02:44.971Z,22.1
2018-09-14T19:08:10.406Z,22.1
2018-09-14T19:13:41.589Z,22.1
2018-09-14T19:19:11.492Z,22.1
2018-09-14T19:24:41.996Z,22.1
2018-09-14T19:30:12.836Z,22.1
2018-09-14T19:35:44.265Z,22.1
2018-09-14T19:41:14.186Z,22.1
2018-09-14T19:46:44.376Z,22.1
2018-09-14T19:52:20.888Z,22.1
2018-09-14T19:57:45.710Z,22.1
2018-09-14T20:03:17.171Z,22.1
2018-09-14T20:08:52.323Z,22
2018-09-14T20:14:18.517Z,22
2018-09-14T20:19:49.599Z,22.1
2018-09-14T20:25:20.529Z,22.1
2018-09-14T20:30:50.969Z,22.1
2018-09-14T20:36:25.969Z,22.1
2018-09-14T20:41:52.418Z,22
2018-09-14T20:47:27.302Z,21.9
2018-09-14T20:52:52.410Z,21.7
2018-09-14T20:58:22.487Z,21.6
2018-09-14T21:03:58.979Z,21.6
2018-09-14T21:09:28.624Z,21.5
2018-09-14T21:14:54.973Z,21.5
2018-09-14T21:20:25.782Z,21.4
2018-09-14T21:26:00.884Z,21.4
2018-09-14T21:31:25.911Z,21.4
2018-09-14T21:37:01.988Z,21.4
2018-09-14T21:42:28.146Z,21.3
2018-09-14T21:47:58.145Z,21.3
2018-09-14T21:53:34.238Z,21.3
2018-09-14T21:58:59.239Z,21.3
2018-09-14T22:04:29.310Z,21.3
2018-09-14T22:10:05.401Z,21.2
2018-09-14T22:15:30.424Z,21.2
2018-09-14T22:21:00.523Z,21.2
2018-09-14T22:26:31.820Z,21.2
2018-09-14T22:32:02.615Z,21.2
2018-09-14T22:37:33.674Z,21.2
2018-09-14T22:43:04.738Z,21.2
2018-09-14T22:48:34.814Z,21.2
2018-09-14T22:54:05.524Z,21.2
2018-09-14T22:59:36.437Z,21.2
2018-09-14T23:05:06.976Z,21.1
2018-09-14T23:10:42.312Z,21.1
2018-09-14T23:16:07.069Z,21.1
2018-09-14T23:21:37.412Z,21.1
2018-09-14T23:27:12.485Z,21.1
2018-09-14T23:32:42.284Z,21.1
2018-09-14T23:38:07.549Z,21.1
2018-09-14T23:43:37.357Z,21.1
2018-09-14T23:49:08.609Z,21.1
2018-09-14T23:54:39.394Z,21.1
